Time;durP1;ratioP1;P1;durP2;ratioP2;P2;SDS_P1;SDS_P2;PMS_P1;PMS_P2;Temp;Humidity;BMP_temperature;BMP_pressure;BME280_temperature;BME280_humidity;BME280_pressure;Samples;Min_cycle;Max_cycle;Signal;HPM_P1;HPM_P2
2024/03/25 00:01:59;;;;;;;4.90;2.53;;;4.90;6.50;;;;;;5055957;28;20205;-69
2024/03/25 00:04:25;;;;;;;9.17;2.27;;;4.90;7.20;;;;;;5074159;28;20191;-68
2024/03/25 00:06:53;;;;;;;2.40;1.60;;;4.90;5.80;;;;;;5073537;28;20180;-69
2024/03/25 00:09:20;;;;;;;6.97;2.00;;;4.80;7.10;;;;;;5074102;28;20176;-68
2024/03/25 00:11:46;;;;;;;3.90;1.40;;;4.80;7.10;;;;;;5073584;28;20480;-68
2024/03/25 00:14:11;;;;;;;2.70;1.80;;;4.80;7.10;;;;;;5073420;28;20465;-68
2024/03/25 00:16:37;;;;;;;3.67;2.43;;;4.80;7.10;;;;;;5073723;28;20177;-67
2024/03/25 00:19:03;;;;;;;3.47;1.50;;;4.80;7.10;;;;;;5056085;28;20184;-68
2024/03/25 00:21:28;;;;;;;6.20;2.00;;;4.80;7.10;;;;;;5074221;28;20433;-69
2024/03/25 00:23:57;;;;;;;2.57;1.20;;;4.80;7.10;;;;;;5074290;28;20667;-68
2024/03/25 00:26:23;;;;;;;4.53;1.80;;;4.70;7.70;;;;;;5074127;28;20177;-67
2024/03/25 00:28:49;;;;;;;3.13;1.80;;;4.70;7.80;;;;;;5073470;28;20510;-68
2024/03/25 00:31:14;;;;;;;3.60;2.23;;;4.70;7.90;;;;;;5055822;28;20525;-67
2024/03/25 00:33:40;;;;;;;3.33;2.00;;;4.70;8.60;;;;;;5055050;28;20239;-68
2024/03/25 00:36:05;;;;;;;3.70;2.53;;;4.80;7.30;;;;;;5073475;28;20173;-68
2024/03/25 00:38:31;;;;;;;4.70;1.80;;;4.80;7.10;;;;;;5073142;28;20607;-68
2024/03/25 00:40:57;;;;;;;6.53;2.90;;;4.70;7.50;;;;;;5073068;28;20294;-68
2024/03/25 00:43:23;;;;;;;4.10;3.00;;;4.80;7.70;;;;;;5071772;28;20181;-68
2024/03/25 00:45:48;;;;;;;6.87;1.67;;;4.70;7.70;;;;;;5073279;28;20410;-68
2024/03/25 00:48:14;;;;;;;4.03;2.57;;;4.70;7.50;;;;;;5073087;28;20330;-68
2024/03/25 00:50:40;;;;;;;4.50;2.20;;;4.70;7.00;;;;;;5073278;28;20246;-69
2024/03/25 00:53:06;;;;;;;3.27;1.60;;;4.70;7.10;;;;;;5072939;28;20256;-68
2024/03/25 00:55:33;;;;;;;3.27;2.40;;;4.80;7.10;;;;;;5072996;28;20203;-69
2024/03/25 00:57:59;;;;;;;4.83;2.67;;;4.80;7.10;;;;;;5072947;28;20451;-70
2024/03/25 01:00:24;;;;;;;2.93;1.97;;;4.80;6.40;;;;;;5072857;28;20768;-68
2024/03/25 01:02:50;;;;;;;4.80;1.83;;;4.80;6.90;;;;;;5072853;28;20176;-68
2024/03/25 01:05:16;;;;;;;6.40;2.37;;;4.80;7.10;;;;;;5072779;28;20415;-68
2024/03/25 01:07:41;;;;;;;6.50;1.93;;;4.80;6.90;;;;;;5072573;28;20181;-69
2024/03/25 01:10:07;;;;;;;4.53;1.90;;;4.80;7.00;;;;;;5072498;28;20548;-68
2024/03/25 01:12:33;;;;;;;2.77;1.37;;;4.80;7.10;;;;;;5072611;28;20503;-68
2024/03/25 01:14:58;;;;;;;2.93;1.53;;;4.70;7.10;;;;;;5072474;28;20179;-68
2024/03/25 01:17:24;;;;;;;3.73;1.63;;;4.70;7.20;;;;;;5072117;28;20176;-67
2024/03/25 01:19:49;;;;;;;4.03;1.83;;;4.70;7.60;;;;;;5054808;28;20259;-69
2024/03/25 01:22:15;;;;;;;3.67;1.70;;;4.70;7.90;;;;;;5072473;28;20567;-68
2024/03/25 01:24:40;;;;;;;3.40;2.00;;;4.70;7.30;;;;;;5072502;28;20188;-70
2024/03/25 01:27:06;;;;;;;10.83;2.27;;;4.70;7.60;;;;;;5072089;28;20187;-67
2024/03/25 01:29:32;;;;;;;3.97;2.27;;;4.70;7.50;;;;;;5071958;28;20193;-67
2024/03/25 01:31:59;;;;;;;3.75;1.98;;;4.70;7.90;;;;;;5071791;28;20195;-68
2024/03/25 01:34:25;;;;;;;6.03;2.08;;;4.70;7.00;;;;;;5072009;28;20647;-68
2024/03/25 01:36:52;;;;;;;3.45;2.05;;;4.70;6.70;;;;;;5053813;28;20180;-68
2024/03/25 01:39:18;;;;;;;3.88;1.63;;;4.70;7.00;;;;;;5071996;28;20173;-68
2024/03/25 01:41:44;;;;;;;2.60;1.70;;;4.70;7.80;;;;;;5071728;28;20240;-69
2024/03/25 01:44:09;;;;;;;4.37;1.93;;;4.80;7.50;;;;;;5071757;28;20451;-68
2024/03/25 01:46:35;;;;;;;5.27;1.60;;;4.80;7.10;;;;;;5071754;28;20824;-68
2024/03/25 01:49:01;;;;;;;4.43;1.90;;;4.70;7.00;;;;;;5071835;28;20678;-68
2024/03/25 01:51:27;;;;;;;3.47;1.40;;;4.70;7.30;;;;;;5071998;28;20480;-68
2024/03/25 01:53:54;;;;;;;2.90;1.80;;;4.70;7.40;;;;;;5071734;28;20317;-68
2024/03/25 01:56:22;;;;;;;4.57;1.65;;;4.70;7.70;;;;;;5071713;28;20233;-68
2024/03/25 01:58:48;;;;;;;4.70;2.03;;;4.70;7.90;;;;;;5072103;28;20242;-67
2024/03/25 02:01:14;;;;;;;4.47;2.00;;;4.70;8.00;;;;;;5054112;28;20494;-69
2024/03/25 02:03:44;;;;;;;4.87;2.13;;;4.70;7.00;;;;;;5072197;28;20589;-68
2024/03/25 02:06:15;;;;;;;2.77;1.53;;;4.70;7.30;;;;;;5054483;28;20417;-69
2024/03/25 02:08:42;;;;;;;3.70;1.50;;;4.70;7.40;;;;;;5072234;28;20415;-69
2024/03/25 02:11:08;;;;;;;4.73;1.93;;;4.70;8.30;;;;;;5071778;28;20446;-69
2024/03/25 02:13:35;;;;;;;5.03;2.33;;;4.70;7.20;;;;;;5072097;28;20450;-68
2024/03/25 02:16:01;;;;;;;7.05;1.75;;;4.70;7.80;;;;;;5071503;28;20172;-68
2024/03/25 02:18:27;;;;;;;3.55;1.92;;;4.70;7.00;;;;;;5071164;28;20281;-69
2024/03/25 02:20:53;;;;;;;3.20;1.70;;;4.70;7.00;;;;;;5053373;28;20240;-68
2024/03/25 02:23:19;;;;;;;2.83;1.77;;;4.70;7.40;;;;;;5071947;28;20499;-68
2024/03/25 02:25:49;;;;;;;5.00;1.80;;;4.70;7.00;;;;;;5071681;28;20195;-68
2024/03/25 02:28:15;;;;;;;2.95;2.10;;;4.60;7.00;;;;;;5071961;28;20415;-68
2024/03/25 02:30:40;;;;;;;2.37;1.43;;;4.60;7.00;;;;;;5075645;28;20506;-67
2024/03/25 02:33:06;;;;;;;3.10;1.73;;;4.60;7.00;;;;;;5058531;28;20202;-68
2024/03/25 02:35:31;;;;;;;3.53;1.37;;;4.60;7.00;;;;;;5061985;28;20184;-68
2024/03/25 02:37:57;;;;;;;5.47;1.80;;;4.60;7.70;;;;;;5075776;28;20265;-68
2024/03/25 02:40:23;;;;;;;2.30;1.40;;;4.60;7.00;;;;;;5071374;28;20203;-68
2024/03/25 02:42:49;;;;;;;4.70;1.73;;;4.60;7.50;;;;;;5056072;28;20421;-67
2024/03/25 02:45:15;;;;;;;3.07;1.67;;;4.60;7.60;;;;;;5073546;28;20768;-68
2024/03/25 02:47:40;;;;;;;5.20;2.10;;;4.60;7.40;;;;;;5072751;28;20267;-67
2024/03/25 02:50:06;;;;;;;2.87;1.40;;;4.60;7.00;;;;;;5073067;28;20429;-67
2024/03/25 02:52:32;;;;;;;3.20;1.97;;;4.60;7.40;;;;;;5072610;28;20190;-67
2024/03/25 02:54:57;;;;;;;3.37;2.03;;;4.60;8.20;;;;;;5072376;28;20414;-67
2024/03/25 02:57:23;;;;;;;4.87;1.70;;;4.60;7.90;;;;;;5073259;28;20270;-67
2024/03/25 02:59:49;;;;;;;4.67;1.80;;;4.60;7.30;;;;;;5073039;28;20179;-67
2024/03/25 03:02:14;;;;;;;3.10;2.00;;;4.60;7.00;;;;;;5073079;28;20430;-67
2024/03/25 03:04:40;;;;;;;3.03;2.23;;;4.60;7.20;;;;;;5073173;28;20180;-65
2024/03/25 03:07:05;;;;;;;6.57;2.60;;;4.60;7.00;;;;;;5075381;28;20180;-67
2024/03/25 03:09:31;;;;;;;2.73;1.80;;;4.60;6.60;;;;;;5075506;28;20538;-67
2024/03/25 03:11:56;;;;;;;3.33;1.83;;;4.50;6.80;;;;;;5075359;28;20341;-67
2024/03/25 03:14:22;;;;;;;2.90;2.17;;;4.60;6.30;;;;;;5075200;28;20243;-67
2024/03/25 03:16:49;;;;;;;6.30;2.20;;;4.60;6.50;;;;;;5075410;28;20199;-68
2024/03/25 03:19:14;;;;;;;5.57;2.17;;;4.60;6.20;;;;;;5075547;28;20164;-68
2024/03/25 03:21:40;;;;;;;6.10;2.40;;;4.60;6.80;;;;;;5075145;28;20191;-68
2024/03/25 03:24:05;;;;;;;3.87;1.67;;;4.60;7.00;;;;;;5074810;28;20188;-68
2024/03/25 03:26:31;;;;;;;4.23;2.40;;;4.60;7.00;;;;;;5074723;28;20238;-68
2024/03/25 03:28:57;;;;;;;3.33;1.73;;;4.50;6.60;;;;;;5074834;28;20316;-68
2024/03/25 03:31:23;;;;;;;6.40;2.15;;;4.50;6.90;;;;;;5075216;28;20687;-68
2024/03/25 03:33:49;;;;;;;6.27;2.00;;;4.60;7.00;;;;;;5074545;28;20310;-68
2024/03/25 03:36:19;;;;;;;3.33;2.10;;;4.60;6.60;;;;;;5074894;28;20180;-66
2024/03/25 03:38:45;;;;;;;5.67;2.70;;;4.60;5.70;;;;;;5075141;28;20423;-68
2024/03/25 03:41:10;;;;;;;5.57;2.93;;;4.60;6.10;;;;;;5074694;28;20970;-67
2024/03/25 03:43:36;;;;;;;3.93;2.43;;;4.60;6.00;;;;;;5077205;28;20422;-67
2024/03/25 03:46:02;;;;;;;4.00;2.40;;;4.60;6.10;;;;;;5078575;28;20177;-67
2024/03/25 03:48:28;;;;;;;5.50;3.80;;;4.50;6.10;;;;;;5078932;28;20503;-67
2024/03/25 03:50:53;;;;;;;5.13;3.40;;;4.50;6.40;;;;;;5078999;28;20266;-67
2024/03/25 03:53:20;;;;;;;7.00;4.30;;;4.50;6.90;;;;;;5078609;28;20470;-68
2024/03/25 03:55:56;;;;;;;7.57;4.45;;;4.50;6.90;;;;;;5060798;28;20185;-67
2024/03/25 03:58:22;;;;;;;8.80;5.53;;;4.50;6.10;;;;;;5078596;28;20548;-68
2024/03/25 04:00:48;;;;;;;10.93;6.80;;;4.40;6.20;;;;;;5078640;28;20659;-67
2024/03/25 04:03:13;;;;;;;12.37;6.30;;;4.40;6.80;;;;;;5076757;28;20482;-67
2024/03/25 04:05:39;;;;;;;13.20;7.93;;;4.40;6.40;;;;;;5076906;28;20269;-67
2024/03/25 04:08:05;;;;;;;13.87;7.00;;;4.40;5.60;;;;;;5057478;28;20250;-67
2024/03/25 04:10:30;;;;;;;10.83;6.73;;;4.40;6.80;;;;;;5075317;28;20270;-67
2024/03/25 04:12:56;;;;;;;11.60;7.67;;;4.40;6.80;;;;;;5074090;28;20456;-67
2024/03/25 04:15:22;;;;;;;10.40;6.00;;;4.40;6.90;;;;;;5074074;28;20177;-67
2024/03/25 04:17:49;;;;;;;8.80;5.60;;;4.40;5.90;;;;;;5073426;28;20194;-67
2024/03/25 04:20:15;;;;;;;13.07;6.70;;;4.40;6.80;;;;;;5073885;28;20506;-67
2024/03/25 04:22:42;;;;;;;9.75;4.60;;;4.50;5.70;;;;;;5073643;28;20184;-68
2024/03/25 04:25:11;;;;;;;6.85;4.55;;;4.50;6.00;;;;;;5073707;28;20179;-68
2024/03/25 04:27:41;;;;;;;6.82;4.90;;;4.50;6.60;;;;;;5055356;28;20190;-67
2024/03/25 04:30:08;;;;;;;8.00;4.03;;;4.50;4.90;;;;;;5073487;28;20180;-67
2024/03/25 04:32:34;;;;;;;8.97;4.30;;;4.50;5.60;;;;;;5073583;28;20267;-67
2024/03/25 04:35:00;;;;;;;5.35;3.67;;;4.50;5.40;;;;;;5055454;28;20505;-67
2024/03/25 04:37:25;;;;;;;4.30;2.90;;;4.50;5.40;;;;;;5055794;28;20231;-67
2024/03/25 04:39:51;;;;;;;7.73;3.10;;;4.50;5.10;;;;;;5073773;28;20259;-67
2024/03/25 04:42:16;;;;;;;6.70;3.20;;;4.50;4.60;;;;;;5073255;28;20214;-67
2024/03/25 04:44:42;;;;;;;4.40;2.70;;;4.50;4.80;;;;;;5073421;28;20415;-67
2024/03/25 04:47:07;;;;;;;5.70;2.77;;;4.40;6.10;;;;;;5078194;28;20180;-67
2024/03/25 04:49:33;;;;;;;3.60;2.40;;;4.40;6.30;;;;;;5078795;28;20185;-68
2024/03/25 04:51:58;;;;;;;11.20;3.03;;;4.40;5.60;;;;;;5078373;28;20206;-67
2024/03/25 04:54:24;;;;;;;4.90;3.40;;;4.30;5.50;;;;;;5075729;28;20212;-68
2024/03/25 04:56:49;;;;;;;5.73;3.30;;;4.30;6.20;;;;;;5076635;28;20199;-68
2024/03/25 04:59:15;;;;;;;8.13;2.97;;;4.20;5.30;;;;;;5076561;28;20262;-68
2024/03/25 05:01:40;;;;;;;5.13;2.27;;;4.20;6.50;;;;;;5074760;28;20201;-67
2024/03/25 05:04:09;;;;;;;5.97;4.17;;;4.10;6.00;;;;;;5076718;28;20584;-67
2024/03/25 05:06:34;;;;;;;4.80;2.53;;;4.00;7.20;;;;;;5076346;28;20176;-67
2024/03/25 05:09:00;;;;;;;7.30;2.40;;;3.90;7.50;;;;;;5076857;28;20254;-68
2024/03/25 05:11:25;;;;;;;6.10;2.80;;;3.90;7.00;;;;;;5058041;28;20587;-67
2024/03/25 05:13:51;;;;;;;3.77;2.33;;;3.90;7.60;;;;;;5076298;28;20207;-67
2024/03/25 05:16:16;;;;;;;4.13;2.60;;;3.80;7.60;;;;;;5076337;28;20184;-67
2024/03/25 05:18:42;;;;;;;6.60;2.70;;;3.80;7.90;;;;;;5075681;28;20266;-67
2024/03/25 05:21:08;;;;;;;4.97;3.30;;;3.70;7.70;;;;;;5073941;28;20205;-68
2024/03/25 05:23:33;;;;;;;5.13;2.17;;;3.80;8.10;;;;;;5073811;28;20179;-68
2024/03/25 05:25:59;;;;;;;3.10;2.17;;;3.80;7.40;;;;;;5073349;28;20197;-67
2024/03/25 05:28:24;;;;;;;4.80;2.23;;;3.80;7.80;;;;;;5073063;28;20187;-67
2024/03/25 05:30:50;;;;;;;5.27;3.30;;;3.80;8.60;;;;;;5075334;28;20618;-67
2024/03/25 05:33:15;;;;;;;6.70;2.97;;;3.80;8.10;;;;;;5074458;28;20199;-67
2024/03/25 05:35:41;;;;;;;5.70;2.80;;;3.80;7.90;;;;;;5074815;28;20260;-67
2024/03/25 05:38:07;;;;;;;4.87;2.30;;;3.90;7.60;;;;;;5074551;28;20247;-67
2024/03/25 05:40:32;;;;;;;5.00;2.33;;;4.00;7.50;;;;;;5073549;28;20454;-67
2024/03/25 05:42:58;;;;;;;4.43;2.87;;;4.00;7.90;;;;;;5073906;28;20219;-67
2024/03/25 05:45:23;;;;;;;8.30;3.27;;;4.20;8.00;;;;;;5073767;28;20630;-68
2024/03/25 05:47:50;;;;;;;7.10;2.53;;;4.30;7.50;;;;;;5055587;28;20184;-68
2024/03/25 05:50:16;;;;;;;5.03;2.30;;;4.40;4.90;;;;;;5055916;28;20535;-68
2024/03/25 05:52:42;;;;;;;5.53;3.60;;;4.50;4.60;;;;;;5073806;28;20209;-69
2024/03/25 05:55:09;;;;;;;4.77;2.40;;;4.50;4.70;;;;;;5072822;28;20232;-67
2024/03/25 05:57:35;;;;;;;5.43;2.53;;;4.60;4.50;;;;;;5072951;28;20195;-68
2024/03/25 06:00:02;;;;;;;5.80;2.80;;;4.60;3.10;;;;;;5073112;28;20640;-68
2024/03/25 06:02:27;;;;;;;9.97;2.40;;;4.70;3.50;;;;;;5073045;28;20418;-68
2024/03/25 06:04:53;;;;;;;3.70;2.30;;;5.00;3.50;;;;;;5055326;28;20429;-68
2024/03/25 06:07:18;;;;;;;4.73;3.23;;;5.30;3.00;;;;;;5072726;28;20204;-67
2024/03/25 06:09:44;;;;;;;4.80;3.73;;;5.50;1.00;;;;;;5055643;28;20656;-68
2024/03/25 06:12:09;;;;;;;7.40;3.97;;;6.40;11.70;;;;;;5073023;28;20192;-68
2024/03/25 06:14:35;;;;;;;6.83;3.40;;;7.90;1.00;;;;;;5073377;28;20205;-67
2024/03/25 06:17:00;;;;;;;6.73;4.00;;;8.00;1.00;;;;;;5071627;28;20182;-69
2024/03/25 06:19:26;;;;;;;8.03;3.87;;;7.50;1.00;;;;;;5071283;28;20190;-69
2024/03/25 06:21:51;;;;;;;5.40;4.00;;;7.30;1.00;;;;;;5074451;28;20285;-69
2024/03/25 06:24:17;;;;;;;5.20;3.97;;;7.70;1.00;;;;;;5057200;28;20671;-69
2024/03/25 06:26:42;;;;;;;6.40;4.10;;;8.00;1.00;;;;;;5074237;28;20181;-69
2024/03/25 06:29:08;;;;;;;8.20;4.47;;;8.00;1.00;;;;;;5074875;28;20208;-68
2024/03/25 06:34:18;;;;;;;6.83;4.43;;;7.50;1.00;;;;;;5078904;28;20232;-67
2024/03/25 06:36:44;;;;;;;9.80;6.37;;;7.30;1.00;;;;;;5078947;28;20747;-68
2024/03/25 06:39:11;;;;;;;7.83;4.50;;;7.30;1.00;;;;;;5078637;28;20203;-67
2024/03/25 06:41:36;;;;;;;11.70;4.70;;;7.40;1.00;;;;;;5062317;28;20459;-69
2024/03/25 06:44:02;;;;;;;7.10;4.30;;;;;;;;;;5078148;28;20460;-68
2024/03/25 06:46:28;;;;;;;5.73;4.53;;;9.80;1.00;;;;;;5076983;28;20180;-68
2024/03/25 06:48:54;;;;;;;5.43;4.10;;;;;;;;;;5076152;28;20502;-68
2024/03/25 06:51:20;;;;;;;8.20;4.37;;;11.00;1.00;;;;;;5079856;28;20201;-68
2024/03/25 06:53:45;;;;;;;8.97;5.40;;;10.50;1.00;;;;;;5080836;28;20499;-70
2024/03/25 06:56:11;;;;;;;6.07;4.47;;;10.30;1.00;;;;;;5079814;28;20169;-67
2024/03/25 06:58:36;;;;;;;8.17;5.10;;;10.00;1.00;;;;;;5080278;28;20231;-67
2024/03/25 07:01:07;;;;;;;8.40;6.20;;;9.90;1.00;;;;;;5080237;28;20200;-67
2024/03/25 07:03:33;;;;;;;6.60;4.20;;;9.70;1.00;;;;;;5080251;28;20172;-67
2024/03/25 07:06:00;;;;;;;7.50;4.60;;;9.70;1.00;;;;;;5079042;28;20658;-67
2024/03/25 07:08:30;;;;;;;5.07;4.57;;;9.30;1.00;;;;;;5078018;28;20457;-67
2024/03/25 07:10:56;;;;;;;6.97;4.83;;;8.90;1.00;;;;;;5078327;28;20468;-67
2024/03/25 07:13:21;;;;;;;6.47;2.93;;;9.10;1.00;;;;;;5077578;28;20454;-67
2024/03/25 07:15:47;;;;;;;8.03;4.33;;;8.70;1.00;;;;;;5077272;28;20241;-67
2024/03/25 07:18:13;;;;;;;5.93;3.93;;;8.70;1.00;;;;;;5076041;28;20182;-67
2024/03/25 07:20:43;;;;;;;9.77;3.80;;;8.80;1.00;;;;;;5076081;28;20306;-68
2024/03/25 07:23:08;;;;;;;6.77;2.73;;;8.90;1.00;;;;;;5077851;28;20220;-67
2024/03/25 07:25:34;;;;;;;4.93;3.17;;;9.20;1.00;;;;;;5079181;28;20472;-68
2024/03/25 07:28:00;;;;;;;5.43;2.60;;;9.80;1.00;;;;;;5075912;28;20190;-66
2024/03/25 07:30:28;;;;;;;4.23;2.57;;;10.20;1.00;;;;;;5072956;28;20205;-72
2024/03/25 07:32:58;;;;;;;8.13;3.37;;;10.10;1.00;;;;;;5076603;28;20263;-68
2024/03/25 07:35:24;;;;;;;6.03;3.23;;;9.90;1.00;;;;;;5077383;28;20415;-68
2024/03/25 07:37:51;;;;;;;7.10;2.90;;;9.90;1.00;;;;;;5059500;28;20559;-68
2024/03/25 07:40:17;;;;;;;8.17;3.20;;;9.80;1.00;;;;;;5078015;28;20443;-69
2024/03/25 07:42:43;;;;;;;5.50;2.77;;;9.30;1.00;;;;;;5060912;28;20431;-69
2024/03/25 07:45:09;;;;;;;3.90;2.47;;;9.10;1.00;;;;;;5060973;28;20576;-70
2024/03/25 07:47:35;;;;;;;3.40;2.30;;;8.70;1.00;;;;;;5079052;28;20173;-69
2024/03/25 07:50:00;;;;;;;4.30;2.13;;;8.50;1.00;;;;;;5060223;28;20603;-70
2024/03/25 07:52:27;;;;;;;2.87;2.00;;;8.60;1.00;;;;;;5076679;28;20644;-69
2024/03/25 07:54:53;;;;;;;5.97;2.30;;;8.70;1.00;;;;;;5076770;28;20232;-70
2024/03/25 07:57:19;;;;;;;6.80;2.93;;;8.60;1.00;;;;;;5076512;28;20731;-69
2024/03/25 07:59:45;;;;;;;5.10;2.80;;;8.60;1.00;;;;;;5078030;28;20922;-69
2024/03/25 08:02:10;;;;;;;4.63;2.60;;;8.70;1.00;;;;;;5078348;28;20430;-70
2024/03/25 08:04:36;;;;;;;4.80;2.63;;;8.80;1.00;;;;;;5080130;28;20252;-69
2024/03/25 08:07:02;;;;;;;5.67;3.00;;;8.40;1.00;;;;;;5079400;28;20196;-68
2024/03/25 08:09:28;;;;;;;8.67;3.27;;;8.70;1.00;;;;;;5062470;28;20179;-68
2024/03/25 08:11:53;;;;;;;4.27;2.57;;;8.40;1.00;;;;;;5079337;28;21010;-69
2024/03/25 08:14:19;;;;;;;5.97;2.50;;;8.00;1.00;;;;;;5079375;28;20216;-69
2024/03/25 08:16:44;;;;;;;6.87;3.07;;;7.80;1.00;;;;;;5080152;28;20499;-69
2024/03/25 08:19:10;;;;;;;6.53;2.57;;;8.10;1.00;;;;;;5079065;28;20193;-68
2024/03/25 08:21:35;;;;;;;6.50;3.30;;;8.10;1.00;;;;;;5079547;28;20204;-69
2024/03/25 08:24:01;;;;;;;4.50;2.60;;;7.90;1.00;;;;;;5081056;28;20185;-69
2024/03/25 08:26:26;;;;;;;11.27;3.60;;;8.20;1.00;;;;;;5081714;28;20214;-68
2024/03/25 08:28:52;;;;;;;3.20;2.53;;;8.70;1.00;;;;;;5082057;28;20690;-69
2024/03/25 08:31:17;;;;;;;6.03;2.47;;;8.80;1.00;;;;;;5081350;28;20264;-69
2024/03/25 08:33:43;;;;;;;5.40;2.57;;;8.90;1.00;;;;;;5081328;28;20206;-68
2024/03/25 08:36:09;;;;;;;4.50;2.60;;;9.80;1.00;;;;;;5079856;28;20184;-68
2024/03/25 08:38:34;;;;;;;4.23;2.40;;;10.40;1.00;;;;;;5066420;28;20185;-68
2024/03/25 08:41:00;;;;;;;3.20;2.10;;;11.10;1.00;;;;;;5099546;22;20253;-70
2024/03/25 08:43:26;;;;;;;4.23;2.43;;;11.90;1.00;;;;;;5053395;28;20179;-70
2024/03/25 08:45:51;;;;;;;3.97;2.00;;;12.00;1.00;;;;;;5043459;28;20236;-70
2024/03/25 08:48:17;;;;;;;6.53;3.50;;;11.70;1.00;;;;;;5033910;28;20191;-70
2024/03/25 08:50:42;;;;;;;4.10;2.77;;;10.90;1.00;;;;;;5034073;28;20202;-68
2024/03/25 08:53:08;;;;;;;8.90;3.27;;;10.30;1.00;;;;;;5045288;28;20202;-70
2024/03/25 08:55:34;;;;;;;2.87;2.00;;;10.10;1.00;;;;;;5051832;28;20220;-70
2024/03/25 08:57:59;;;;;;;3.57;2.77;;;9.90;1.00;;;;;;5054238;28;20174;-71
2024/03/25 09:00:27;;;;;;;4.90;2.60;;;9.50;1.00;;;;;;5053889;28;20179;-68
2024/03/25 09:02:53;;;;;;;3.87;2.70;;;9.40;1.00;;;;;;5053686;28;20183;-70
2024/03/25 09:05:18;;;;;;;11.60;3.00;;;9.40;1.00;;;;;;5073822;28;20425;-69
2024/03/25 09:07:45;;;;;;;4.87;3.13;;;9.40;1.00;;;;;;5057777;28;20417;-72
2024/03/25 09:12:55;;;;;;;4.93;2.73;;;9.20;1.00;;;;;;5062208;28;20458;-71
2024/03/25 09:15:21;;;;;;;5.80;2.77;;;9.10;1.00;;;;;;5062886;28;20444;-72
2024/03/25 09:17:46;;;;;;;5.23;2.53;;;9.40;1.00;;;;;;5062578;28;20555;-72
2024/03/25 09:20:20;;;;;;;3.43;2.30;;;9.30;1.00;;;;;;5057645;28;20183;-72
2024/03/25 09:22:46;;;;;;;3.50;2.80;;;9.30;1.00;;;;;;5053414;28;20179;-72
2024/03/25 09:25:13;;;;;;;4.43;2.13;;;9.40;1.00;;;;;;5053693;28;20474;-72
2024/03/25 09:27:39;;;;;;;4.30;2.47;;;9.40;1.00;;;;;;5053120;28;20899;-73
2024/03/25 09:30:05;;;;;;;5.00;2.77;;;9.60;1.00;;;;;;5053371;28;20491;-72
2024/03/25 09:32:31;;;;;;;3.20;2.70;;;9.80;1.00;;;;;;5053335;28;20448;-70
2024/03/25 09:34:57;;;;;;;2.50;2.23;;;9.80;1.00;;;;;;5054644;28;20474;-72
2024/03/25 09:37:23;;;;;;;5.50;3.10;;;10.10;1.00;;;;;;5052632;28;20182;-74
2024/03/25 09:39:48;;;;;;;5.60;2.67;;;10.40;1.00;;;;;;5053388;28;20416;-72
2024/03/25 09:42:26;;;;;;;4.17;2.40;;;10.60;1.00;;;;;;5034825;28;20280;-70
2024/03/25 09:44:53;;;;;;;6.73;3.17;;;10.70;1.00;;;;;;5053243;28;20190;-70
2024/03/25 09:47:19;;;;;;;6.70;3.40;;;10.70;1.00;;;;;;5052564;28;20953;-68
2024/03/25 09:49:46;;;;;;;4.47;2.57;;;10.90;1.00;;;;;;5052633;28;20460;-70
2024/03/25 09:52:12;;;;;;;5.00;2.37;;;11.00;1.00;;;;;;5052725;28;20214;-68
2024/03/25 09:54:37;;;;;;;4.80;2.50;;;11.30;1.00;;;;;;5063108;28;20476;-69
2024/03/25 09:57:04;;;;;;;5.27;3.00;;;11.40;1.00;;;;;;5057622;28;20175;-69
2024/03/25 09:59:30;;;;;;;2.83;2.10;;;11.40;1.00;;;;;;5034911;28;20179;-70
2024/03/25 10:01:58;;;;;;;4.03;2.80;;;11.40;1.00;;;;;;5034585;28;20455;-70
2024/03/25 10:04:23;;;;;;;4.10;2.97;;;11.30;1.00;;;;;;5052559;28;20265;-69
2024/03/25 10:06:49;;;;;;;7.93;3.10;;;11.30;1.00;;;;;;5052625;28;20452;-69
2024/03/25 10:09:19;;;;;;;5.80;3.30;;;11.30;1.00;;;;;;5034236;28;20189;-68
2024/03/25 10:11:48;;;;;;;6.10;3.63;;;11.30;1.00;;;;;;5052420;28;20289;-69
2024/03/25 10:14:15;;;;;;;5.83;3.27;;;11.60;1.00;;;;;;5052274;28;20818;-69
2024/03/25 10:16:41;;;;;;;6.07;4.13;;;11.60;1.00;;;;;;5052253;28;20433;-69
2024/03/25 10:19:07;;;;;;;2.70;2.20;;;11.60;1.00;;;;;;5052259;28;20409;-69
2024/03/25 10:21:33;;;;;;;3.30;2.63;;;11.40;1.00;;;;;;5052265;28;20190;-68
2024/03/25 10:23:58;;;;;;;3.60;2.80;;;11.10;1.00;;;;;;5052446;28;20854;-70
2024/03/25 10:26:26;;;;;;;4.73;2.63;;;11.00;1.00;;;;;;5034546;28;20187;-68
2024/03/25 10:28:59;;;;;;;3.90;3.03;;;11.00;1.00;;;;;;5052039;28;20180;-68
2024/03/25 10:31:25;;;;;;;3.50;2.60;;;11.00;1.00;;;;;;5052227;28;20440;-68
2024/03/25 10:33:50;;;;;;;11.30;3.83;;;11.20;1.00;;;;;;5050192;28;20533;-68
2024/03/25 10:36:16;;;;;;;3.47;3.00;;;11.00;1.00;;;;;;5029975;28;20185;-68
2024/03/25 10:38:43;;;;;;;3.43;2.57;;;11.10;1.00;;;;;;5048309;28;20186;-68
2024/03/25 10:41:10;;;;;;;3.70;3.03;;;11.10;1.00;;;;;;5030315;28;20445;-70
2024/03/25 10:43:38;;;;;;;5.37;2.53;;;11.00;1.00;;;;;;5048546;28;20428;-71
2024/03/25 10:46:04;;;;;;;5.00;2.70;;;11.00;1.00;;;;;;5034588;28;20512;-69
2024/03/25 10:48:34;;;;;;;3.23;2.93;;;11.40;1.00;;;;;;5052074;28;20463;-69
2024/03/25 10:51:03;;;;;;;3.90;2.80;;;11.50;1.00;;;;;;5052483;28;20924;-69
2024/03/25 10:53:30;;;;;;;3.67;3.10;;;11.70;1.00;;;;;;5052225;28;20801;-70
2024/03/25 10:55:56;;;;;;;5.43;3.03;;;11.90;1.00;;;;;;5051762;28;20429;-69
2024/03/25 10:58:23;;;;;;;3.63;2.47;;;11.80;1.00;;;;;;5051535;28;20925;-69
2024/03/25 11:00:50;;;;;;;4.10;3.10;;;11.80;1.00;;;;;;5051611;28;20490;-69
2024/03/25 11:03:16;;;;;;;3.40;2.37;;;12.00;1.00;;;;;;5051837;28;20442;-68
2024/03/25 11:05:42;;;;;;;3.50;2.93;;;12.20;1.00;;;;;;5052497;28;20495;-70
2024/03/25 11:08:15;;;;;;;5.40;3.20;;;11.70;1.00;;;;;;5035010;28;21019;-70
2024/03/25 11:10:47;;;;;;;2.63;2.43;;;11.70;1.00;;;;;;5053772;28;20657;-69
2024/03/25 11:13:14;;;;;;;4.40;2.70;;;12.00;1.00;;;;;;5035983;28;20450;-70
2024/03/25 11:15:44;;;;;;;4.10;3.07;;;12.20;1.00;;;;;;5052411;28;20424;-69
2024/03/25 11:18:13;;;;;;;3.70;2.83;;;12.20;1.00;;;;;;5051720;28;20421;-68
2024/03/25 11:20:39;;;;;;;5.73;2.73;;;12.00;1.00;;;;;;5033990;28;20448;-69
2024/03/25 11:23:12;;;;;;;3.40;2.90;;;11.80;1.00;;;;;;5051498;28;20421;-68
2024/03/25 11:25:39;;;;;;;6.60;3.00;;;11.80;1.00;;;;;;5051271;28;20443;-70
2024/03/25 11:28:05;;;;;;;5.83;2.57;;;11.90;1.00;;;;;;5054267;28;20450;-70
2024/03/25 11:30:31;;;;;;;3.20;2.43;;;12.20;1.00;;;;;;5055433;28;20464;-69
2024/03/25 11:32:58;;;;;;;5.80;2.37;;;12.20;1.00;;;;;;5055348;28;20464;-69
2024/03/25 11:35:24;;;;;;;2.87;2.53;;;12.30;1.00;;;;;;5055224;28;20832;-69
2024/03/25 11:37:52;;;;;;;3.80;3.40;;;12.30;1.00;;;;;;5054910;28;20505;-69
2024/03/25 11:40:17;;;;;;;2.70;2.30;;;12.40;1.00;;;;;;5055551;28;20178;-69
2024/03/25 11:42:43;;;;;;;4.50;2.70;;;12.80;1.00;;;;;;5037231;28;20431;-69
2024/03/25 11:45:19;;;;;;;4.13;3.70;;;13.10;1.00;;;;;;5055088;28;20617;-69
2024/03/25 11:47:46;;;;;;;4.10;3.17;;;13.10;1.00;;;;;;5054934;28;20964;-71
2024/03/25 11:50:14;;;;;;;3.30;2.90;;;13.20;1.00;;;;;;5055134;28;20416;-71
2024/03/25 11:52:40;;;;;;;2.77;2.57;;;13.20;1.00;;;;;;5037028;28;20436;-67
2024/03/25 11:55:08;;;;;;;3.90;2.67;;;13.30;1.00;;;;;;5055118;28;20419;-70
2024/03/25 11:57:35;;;;;;;3.53;3.20;;;13.30;1.00;;;;;;5048202;28;20489;-70
2024/03/25 12:00:01;;;;;;;4.40;2.70;;;13.30;1.00;;;;;;5042665;28;20420;-71
2024/03/25 12:02:27;;;;;;;2.93;2.57;;;13.30;1.00;;;;;;5034730;28;20447;-70
2024/03/25 12:04:52;;;;;;;4.57;2.60;;;13.20;1.00;;;;;;5034719;28;20410;-70
2024/03/25 12:07:18;;;;;;;6.33;3.10;;;13.50;1.00;;;;;;5044487;28;20195;-71
2024/03/25 12:12:28;;;;;;;4.63;2.63;;;13.90;1.00;;;;;;5054285;28;20446;-70
2024/03/25 12:14:55;;;;;;;2.93;2.50;;;14.00;1.00;;;;;;5054901;28;20458;-70
2024/03/25 12:17:22;;;;;;;2.43;2.20;;;13.80;1.00;;;;;;5037043;28;20179;-71
2024/03/25 12:20:03;;;;;;;3.40;3.10;;;14.10;1.00;;;;;;5054544;28;20496;-70
2024/03/25 12:22:30;;;;;;;3.00;2.67;;;14.30;1.00;;;;;;5054347;28;20436;-70
2024/03/25 12:25:00;;;;;;;3.20;2.90;;;14.30;1.00;;;;;;5053985;28;20790;-70
2024/03/25 12:27:28;;;;;;;3.17;2.87;;;14.10;1.00;;;;;;5053909;28;20433;-70
2024/03/25 12:30:01;;;;;;;2.93;2.73;;;14.00;1.00;;;;;;5054492;28;20451;-70
2024/03/25 12:32:41;;;;;;;4.03;2.93;;;13.60;1.00;;;;;;5054185;28;20441;-71
2024/03/25 12:35:16;;;;;;;3.47;3.23;;;13.70;1.00;;;;;;5054124;28;21071;-70
2024/03/25 12:37:45;;;;;;;3.40;3.10;;;13.70;1.00;;;;;;5053197;28;20397;-73
2024/03/25 12:40:28;;;;;;;3.17;2.90;;;13.80;1.00;;;;;;5054845;28;20503;-70
2024/03/25 12:42:54;;;;;;;3.50;3.20;;;14.00;1.00;;;;;;5054120;28;20412;-69
2024/03/25 12:45:21;;;;;;;3.60;3.30;;;14.10;1.00;;;;;;5054772;28;20405;-70
2024/03/25 12:47:46;;;;;;;3.53;2.67;;;14.30;1.00;;;;;;5044972;28;20429;-71
2024/03/25 12:50:12;;;;;;;3.10;2.90;;;14.20;1.00;;;;;;5042310;28;20426;-71
2024/03/25 12:52:37;;;;;;;2.83;2.43;;;14.00;1.00;;;;;;5034340;28;20211;-67
2024/03/25 12:55:03;;;;;;;4.80;3.53;;;13.40;1.00;;;;;;5033983;28;20210;-67
2024/03/25 12:57:29;;;;;;;3.23;2.97;;;13.30;1.00;;;;;;5044995;28;20561;-67
2024/03/25 12:59:55;;;;;;;8.07;2.53;;;13.50;1.00;;;;;;5034792;28;20877;-68
2024/03/25 13:02:20;;;;;;;2.63;2.43;;;13.40;1.00;;;;;;5033767;28;20439;-68
2024/03/25 13:04:46;;;;;;;2.80;2.50;;;13.30;1.00;;;;;;5045479;28;20193;-68
2024/03/25 13:07:12;;;;;;;3.00;2.50;;;13.40;1.00;;;;;;5054064;28;20203;-68
2024/03/25 13:09:37;;;;;;;3.30;2.57;;;13.70;1.00;;;;;;5047387;28;20516;-68